createdAt,value
2018-02-19T00:01:33.317Z,100804.21
2018-02-19T00:04:01.758Z,100808.21
2018-02-19T00:06:30.259Z,100809.34
2018-02-19T00:08:58.697Z,100799.23
2018-02-19T00:11:27.127Z,100803.78
2018-02-19T00:13:55.595Z,100796.16
2018-02-19T00:16:24.029Z,100799.38
2018-02-19T00:18:52.477Z,100795.34
2018-02-19T00:21:20.966Z,100790.91
2018-02-19T00:23:49.425Z,100791.19
2018-02-19T00:26:17.875Z,100785.22
2018-02-19T00:28:46.378Z,100776.28
2018-02-19T00:31:14.829Z,100781.89
2018-02-19T00:33:43.292Z,100779.39
2018-02-19T00:36:11.769Z,100779.64
2018-02-19T00:38:40.222Z,100776.02
2018-02-19T00:41:08.662Z,100773.33
2018-02-19T00:43:37.140Z,100768.65
2018-02-19T00:46:05.582Z,100767.25
2018-02-19T00:48:34.040Z,100768.45
2018-02-19T00:51:02.515Z,100772.22
2018-02-19T00:53:30.973Z,100768.77
2018-02-19T00:55:59.404Z,100761.42
2018-02-19T00:58:27.869Z,100765.23
2018-02-19T01:00:56.311Z,100759.34
2018-02-19T01:03:24.760Z,100755.39
2018-02-19T01:05:53.260Z,100749.08
2018-02-19T01:08:21.706Z,100754.52
2018-02-19T01:10:50.144Z,100758.41
2018-02-19T01:13:18.620Z,100754.64
2018-02-19T01:15:47.045Z,100758.70
2018-02-19T01:18:15.485Z,100760.84
2018-02-19T01:20:43.964Z,100751.36
2018-02-19T01:23:12.408Z,100751.52
2018-02-19T01:25:40.859Z,100751.28
2018-02-19T01:28:09.563Z,100743.35
2018-02-19T01:30:37.997Z,100753.13
2018-02-19T01:33:06.441Z,100747.02
2018-02-19T01:35:34.934Z,100740.52
2018-02-19T01:38:03.378Z,100741.20
2018-02-19T01:40:31.824Z,100732.51
2018-02-19T01:43:00.309Z,100729.84
2018-02-19T01:45:28.753Z,100729.48
2018-02-19T01:47:57.203Z,100733.94
2018-02-19T01:50:25.691Z,100727.55
2018-02-19T01:52:54.132Z,100725.50
2018-02-19T01:55:22.569Z,100719.22
2018-02-19T01:57:51.063Z,100714.54
2018-02-19T02:00:19.749Z,100714.84
2018-02-19T02:02:48.186Z,100711.03
2018-02-19T02:05:16.677Z,100715.18
2018-02-19T02:07:45.135Z,100701.48
2018-02-19T02:10:13.581Z,100708.05
2018-02-19T02:12:42.051Z,100700.08
2018-02-19T02:15:10.501Z,100692.57
2018-02-19T02:17:38.948Z,100682.34
2018-02-19T02:20:07.431Z,100679.61
2018-02-19T02:22:35.868Z,100681.44
2018-02-19T02:25:04.316Z,100683.54
2018-02-19T02:27:32.786Z,100672.10
2018-02-19T02:30:01.233Z,100676.23
2018-02-19T02:32:29.695Z,100667.84
2018-02-19T02:34:58.168Z,100667.84
2018-02-19T02:37:26.607Z,100667.76
2018-02-19T02:39:55.038Z,100664.70
2018-02-19T02:42:23.521Z,100663.19
2018-02-19T02:44:51.967Z,100661.65
2018-02-19T02:47:20.417Z,100655.98
2018-02-19T02:49:48.928Z,100654.45
2018-02-19T02:52:17.366Z,100658.02
2018-02-19T02:54:45.829Z,100660.84
2018-02-19T02:57:14.300Z,100660.20
2018-02-19T02:59:47.586Z,100656.88
2018-02-19T03:02:16.080Z,100651.89
2018-02-19T03:04:44.548Z,100648.25
2018-02-19T03:07:12.982Z,100653.77
2018-02-19T03:09:41.506Z,100649.88
2018-02-19T03:12:09.934Z,100648.87
2018-02-19T03:14:38.362Z,100650.13
2018-02-19T03:17:06.849Z,100643.89
2018-02-19T03:19:35.317Z,100643.35
2018-02-19T03:22:03.743Z,100636.28
2018-02-19T03:24:32.241Z,100636.99
2018-02-19T03:27:00.681Z,100629.34
2018-02-19T03:29:29.122Z,100624.66
2018-02-19T03:31:57.611Z,100632.56
2018-02-19T03:34:26.064Z,100639.31
2018-02-19T03:36:54.503Z,100632.14
2018-02-19T03:39:22.981Z,100631.81
2018-02-19T03:41:51.419Z,100633.97
2018-02-19T03:44:19.872Z,100631.13
2018-02-19T03:46:48.363Z,100625.47
2018-02-19T03:49:16.812Z,100623.34
2018-02-19T03:51:45.250Z,100625.66
2018-02-19T03:54:13.733Z,100623.63
2018-02-19T03:56:42.173Z,100620.55
2018-02-19T03:59:10.632Z,100621.78
2018-02-19T04:01:39.098Z,100619.30
2018-02-19T04:04:07.553Z,100623.73
2018-02-19T04:06:35.984Z,100622.30
2018-02-19T04:09:04.525Z,100622.03
2018-02-19T04:11:32.978Z,100613.48
2018-02-19T04:14:01.416Z,100614.80
2018-02-19T04:16:30.111Z,100607.72
2018-02-19T04:18:58.547Z,100618.05
2018-02-19T04:21:26.993Z,100611.42
2018-02-19T04:23:55.477Z,100610.02
2018-02-19T04:26:23.928Z,100607.70
2018-02-19T04:28:52.374Z,100602.52
2018-02-19T04:31:20.864Z,100602.74
2018-02-19T04:33:49.297Z,100601.59
2018-02-19T04:36:17.736Z,100601.84
2018-02-19T04:38:46.233Z,100603.11
2018-02-19T04:41:14.666Z,100598.67
2018-02-19T04:43:43.140Z,100598.00
2018-02-19T04:46:12.473Z,100595.66
2018-02-19T04:48:40.921Z,100588.56
2018-02-19T04:51:09.371Z,100589.97
2018-02-19T04:53:37.861Z,100585.63
2018-02-19T04:56:06.302Z,100587.51
2018-02-19T04:58:34.756Z,100587.59
2018-02-19T05:01:03.278Z,100579.55
2018-02-19T05:03:31.712Z,100584.88
2018-02-19T05:06:00.161Z,100584.15
2018-02-19T05:08:28.630Z,100585.69
2018-02-19T05:10:57.061Z,100583.66
2018-02-19T05:13:25.516Z,100577.14
2018-02-19T05:15:54.028Z,100574.89
2018-02-19T05:18:22.473Z,100574.86
2018-02-19T05:20:50.922Z,100573.25
2018-02-19T05:23:19.400Z,100575.82
2018-02-19T05:25:47.834Z,100575.97
2018-02-19T05:28:16.296Z,100575.60
2018-02-19T05:30:44.770Z,100567.34
2018-02-19T05:33:13.209Z,100566.03
2018-02-19T05:35:41.657Z,100569.98
2018-02-19T05:38:10.144Z,100570.51
2018-02-19T05:40:38.596Z,100572.61
2018-02-19T05:43:07.039Z,100571.53
2018-02-19T05:45:35.531Z,100572.97
2018-02-19T05:48:04.006Z,100577.30
2018-02-19T05:50:32.453Z,100576.94
2018-02-19T05:53:00.938Z,100575.70
2018-02-19T05:55:29.391Z,100578.84
2018-02-19T05:57:57.846Z,100585.82
2018-02-19T06:00:26.305Z,100590.07
2018-02-19T06:02:54.728Z,100590.19
2018-02-19T06:05:23.174Z,100589.58
2018-02-19T06:07:51.638Z,100588.66
2018-02-19T06:10:20.133Z,100582.55
2018-02-19T06:12:48.561Z,100593.02
2018-02-19T06:15:17.027Z,100592.20
2018-02-19T06:17:45.480Z,100590.73
2018-02-19T06:20:13.899Z,100586.61
2018-02-19T06:22:42.393Z,100595.30
2018-02-19T06:25:10.822Z,100596.81
2018-02-19T06:27:39.274Z,100592.16
2018-02-19T06:30:07.760Z,100590.03
2018-02-19T06:32:36.211Z,100591.18
2018-02-19T06:35:04.669Z,100592.38
2018-02-19T06:37:33.130Z,100583.66
2018-02-19T06:40:01.576Z,100589.97
2018-02-19T06:42:29.995Z,100583.39
2018-02-19T06:44:58.463Z,100584.41
2018-02-19T06:47:26.898Z,100589.55
2018-02-19T06:49:55.346Z,100592.31
2018-02-19T06:52:23.833Z,100594.64
2018-02-19T06:54:52.256Z,100598.17
2018-02-19T06:57:20.701Z,100601.09
2018-02-19T06:59:49.181Z,100594.52
2018-02-19T07:02:17.620Z,100598.27
2018-02-19T07:04:46.053Z,100593.59
2018-02-19T07:07:14.521Z,100586.96
2018-02-19T07:09:42.972Z,100585.03
2018-02-19T07:12:11.411Z,100585.22
2018-02-19T07:14:39.873Z,100588.56
2018-02-19T07:17:08.293Z,100594.57
2018-02-19T07:19:36.765Z,100590.56
2018-02-19T07:22:05.240Z,100595.69
2018-02-19T07:24:33.670Z,100588.05
2018-02-19T07:27:02.100Z,100587.95
2018-02-19T07:29:30.588Z,100594.66
2018-02-19T07:31:59.016Z,100588.25
2018-02-19T07:34:27.448Z,100589.98
2018-02-19T07:36:55.941Z,100584.60
2018-02-19T07:39:24.362Z,100588.88
2018-02-19T07:41:52.788Z,100587.45
2018-02-19T07:44:21.309Z,100585.96
2018-02-19T07:46:49.759Z,100584.97
2018-02-19T07:49:18.208Z,100577.06
2018-02-19T07:51:46.675Z,100582.30
2018-02-19T07:54:15.098Z,100583.59
2018-02-19T07:56:43.523Z,100580.69
2018-02-19T07:59:12.006Z,100575.91
2018-02-19T08:01:40.441Z,100573.77
2018-02-19T08:04:08.891Z,100574.36
2018-02-19T08:06:37.357Z,100564.67
2018-02-19T08:09:05.821Z,100564.97
2018-02-19T08:11:34.253Z,100568.20
2018-02-19T08:14:02.733Z,100563.77
2018-02-19T08:16:31.173Z,100568.41
2018-02-19T08:18:59.606Z,100556.73
2018-02-19T08:21:28.083Z,100558.76
2018-02-19T08:23:56.601Z,100553.07
2018-02-19T08:26:25.041Z,100556.03
2018-02-19T08:28:53.515Z,100548.91
2018-02-19T08:31:21.962Z,100554.31
2018-02-19T08:33:50.421Z,100546.06
2018-02-19T08:36:19.133Z,100549.39
2018-02-19T08:38:47.573Z,100547.34
2018-02-19T08:41:16.037Z,100557.20
2018-02-19T08:43:44.527Z,100554.84
2018-02-19T08:46:12.970Z,100555.68
2018-02-19T08:48:41.432Z,100555.94
2018-02-19T08:51:09.950Z,100558.23
2018-02-19T08:53:38.398Z,100550.87
2018-02-19T08:56:06.831Z,100553.87
2018-02-19T08:58:35.306Z,100543.13
2018-02-19T09:01:03.770Z,100544.80
2018-02-19T09:03:32.197Z,100544.22
2018-02-19T09:06:00.675Z,100540.97
2018-02-19T09:08:29.105Z,100536.59
2018-02-19T09:10:57.538Z,100539.17
2018-02-19T09:13:25.998Z,100532.19
2018-02-19T09:15:54.423Z,100527.27
2018-02-19T09:18:23.186Z,100530.56
2018-02-19T09:20:51.694Z,100526.32
2018-02-19T09:23:20.129Z,100527.47
2018-02-19T09:25:49.370Z,100528.20
2018-02-19T09:28:17.870Z,100518.97
2018-02-19T09:30:46.328Z,100517.98
2018-02-19T09:33:14.769Z,100521.38
2018-02-19T09:35:43.249Z,100511.05
2018-02-19T09:38:11.735Z,100510.45
2018-02-19T09:40:40.168Z,100510.02
2018-02-19T09:43:08.640Z,100510.88
2018-02-19T09:45:37.082Z,100507.77
2018-02-19T09:48:05.521Z,100508.27
2018-02-19T09:50:34.005Z,100503.58
2018-02-19T09:53:02.486Z,100506.62
2018-02-19T09:55:30.907Z,100509.40
2018-02-19T09:57:59.390Z,100504.75
2018-02-19T10:00:27.813Z,100507.84
2018-02-19T10:02:56.247Z,100509.03
2018-02-19T10:05:24.738Z,100511.91
2018-02-19T10:07:53.186Z,100505.45
2018-02-19T10:10:21.606Z,100509.62
2018-02-19T10:12:50.091Z,100507.13
2018-02-19T10:15:18.523Z,100507.53
2018-02-19T10:17:46.964Z,100509.02
2018-02-19T10:20:15.451Z,100506.77
2018-02-19T10:22:43.881Z,100506.38
2018-02-19T10:25:12.320Z,100503.54
2018-02-19T10:27:40.799Z,100493.48
2018-02-19T10:30:09.249Z,100492.20
2018-02-19T10:32:37.698Z,100491.29
2018-02-19T10:35:06.185Z,100489.99
2018-02-19T10:37:34.605Z,100488.63
2018-02-19T10:40:03.081Z,100483.42
2018-02-19T10:42:31.565Z,100482.88
2018-02-19T10:45:00.022Z,100484.52
2018-02-19T10:47:28.463Z,100485.59
2018-02-19T10:49:56.922Z,100481.21
2018-02-19T10:52:25.377Z,100484.14
2018-02-19T10:54:53.836Z,100480.97
2018-02-19T10:57:22.339Z,100479.61
2018-02-19T10:59:50.813Z,100475.44
2018-02-19T11:02:19.264Z,100481.73
2018-02-19T11:04:47.757Z,100470.25
2018-02-19T11:07:16.200Z,100479.16
2018-02-19T11:09:44.640Z,100466.39
2018-02-19T11:12:13.110Z,100461.59
2018-02-19T11:14:41.534Z,100459.09
2018-02-19T11:17:09.974Z,100457.15
2018-02-19T11:19:38.486Z,100453.29
2018-02-19T11:22:06.939Z,100446.09
2018-02-19T11:24:35.396Z,100447.51
2018-02-19T11:27:03.910Z,100444.70
2018-02-19T11:29:32.346Z,100443.83
2018-02-19T11:32:00.766Z,100443.98
2018-02-19T11:34:29.248Z,100442.55
2018-02-19T11:36:57.691Z,100439.70
2018-02-19T11:39:26.145Z,100439.55
2018-02-19T11:41:54.649Z,100434.68
2018-02-19T11:44:23.080Z,100433.95
2018-02-19T11:46:51.564Z,100434.80
2018-02-19T11:49:20.056Z,100432.66
2018-02-19T11:51:48.532Z,100426.89
2018-02-19T11:54:16.990Z,100431.02
2018-02-19T11:56:45.471Z,100431.64
2018-02-19T11:59:13.912Z,100421.98
2018-02-19T12:01:42.341Z,100422.79
2018-02-19T12:04:10.815Z,100416.21
2018-02-19T12:06:39.241Z,100411.76
2018-02-19T12:09:07.691Z,100407.71
2018-02-19T12:11:36.177Z,100404.17
2018-02-19T12:14:04.628Z,100406.45
2018-02-19T12:16:33.090Z,100406.08
2018-02-19T12:19:01.558Z,100405.17
2018-02-19T12:21:29.993Z,100401.81
2018-02-19T12:23:58.440Z,100397.97
2018-02-19T12:26:26.906Z,100394.11
2018-02-19T12:28:55.348Z,100387.12
2018-02-19T12:31:23.788Z,100387.33
2018-02-19T12:33:52.287Z,100391.56
2018-02-19T12:36:20.757Z,100385.66
2018-02-19T12:38:49.214Z,100380.50
2018-02-19T12:41:17.701Z,100377.11
2018-02-19T12:43:46.137Z,100366.56
2018-02-19T12:46:14.596Z,100368.63
2018-02-19T12:48:43.090Z,100358.70
2018-02-19T12:51:11.559Z,100356.85
2018-02-19T12:53:40.012Z,100361.21
2018-02-19T12:56:08.621Z,100350.74
2018-02-19T12:58:37.051Z,100348.89
2018-02-19T13:01:05.494Z,100349.59
2018-02-19T13:03:33.966Z,100341.76
2018-02-19T13:06:02.391Z,100338.27
2018-02-19T13:08:30.822Z,100343.30
2018-02-19T13:10:59.342Z,100332.89
2018-02-19T13:13:27.776Z,100334.53
2018-02-19T13:15:56.241Z,100330.09
2018-02-19T13:18:24.741Z,100329.59
2018-02-19T13:20:53.200Z,100329.22
2018-02-19T13:23:21.654Z,100326.14
2018-02-19T13:25:50.141Z,100320.30
2018-02-19T13:28:18.588Z,100320.02
2018-02-19T13:30:47.031Z,100322.91
2018-02-19T13:33:15.517Z,100321.38
2018-02-19T13:35:43.968Z,100322.33
2018-02-19T13:38:12.416Z,100322.05
2018-02-19T13:40:40.874Z,100317.52
2018-02-19T13:43:09.317Z,100312.38
2018-02-19T13:45:37.746Z,100305.17
2018-02-19T13:48:06.212Z,100312.09
2018-02-19T13:50:34.654Z,100315.31
2018-02-19T13:53:03.104Z,100313.56
2018-02-19T13:55:31.597Z,100304.45
2018-02-19T13:58:00.041Z,100308.84
2018-02-19T14:00:28.504Z,100300.32
2018-02-19T14:02:57.013Z,100300.38
2018-02-19T14:05:25.458Z,100307.44
2018-02-19T14:07:53.915Z,100306.52
2018-02-19T14:10:22.386Z,100303.42
2018-02-19T14:12:50.828Z,100298.41
2018-02-19T14:15:19.277Z,100303.70
2018-02-19T14:17:47.758Z,100295.89
2018-02-19T14:20:16.201Z,100303.77
2018-02-19T14:22:44.667Z,100297.52
2018-02-19T14:25:13.154Z,100297.98
2018-02-19T14:27:41.610Z,100293.84
2018-02-19T14:30:10.061Z,100298.67
2018-02-19T14:32:38.566Z,100297.15
2018-02-19T14:35:06.995Z,100296.69
2018-02-19T14:37:35.441Z,100291.28
2018-02-19T14:40:03.952Z,100295.64
2018-02-19T14:42:32.414Z,100292.98
2018-02-19T14:45:00.840Z,100296.45
2018-02-19T14:47:29.316Z,100296.80
2018-02-19T14:49:57.757Z,100289.76
2018-02-19T14:52:26.197Z,100293.73
2018-02-19T14:54:54.679Z,100294.80
2018-02-19T14:57:23.121Z,100296.50
2018-02-19T14:59:51.574Z,100283.52
2018-02-19T15:02:20.052Z,100281.63
2018-02-19T15:04:48.499Z,100282.02
2018-02-19T15:07:16.922Z,100276.03
2018-02-19T15:09:45.416Z,100276.27
2018-02-19T15:12:13.850Z,100275.91
2018-02-19T15:14:42.279Z,100277.10
2018-02-19T15:17:10.755Z,100278.06
2018-02-19T15:19:39.178Z,100281.58
2018-02-19T15:22:07.602Z,100279.36
2018-02-19T15:24:36.081Z,100284.01
2018-02-19T15:27:04.532Z,100280.95
2018-02-19T15:29:32.974Z,100279.24
2018-02-19T15:32:01.488Z,100279.73
2018-02-19T15:34:29.920Z,100280.13
2018-02-19T15:36:58.382Z,100274.44
2018-02-19T15:39:26.841Z,100274.95
2018-02-19T15:41:55.275Z,100272.23
2018-02-19T15:44:23.715Z,100270.61
2018-02-19T15:46:52.226Z,100269.93
2018-02-19T15:49:20.689Z,100261.95
2018-02-19T15:51:49.139Z,100265.30
2018-02-19T15:54:17.627Z,100260.94
2018-02-19T15:56:46.057Z,100267.54
2018-02-19T15:59:14.497Z,100273.97
2018-02-19T16:01:42.992Z,100271.08
2018-02-19T16:04:11.465Z,100276.22
2018-02-19T16:06:39.932Z,100271.43
2018-02-19T16:09:08.406Z,100272.30
2018-02-19T16:11:36.845Z,100269.10
2018-02-19T16:14:05.266Z,100270.98
2018-02-19T16:16:33.731Z,100268.13
2018-02-19T16:19:02.167Z,100281.91
2018-02-19T16:21:30.587Z,100278.36
2018-02-19T16:23:59.062Z,100277.29
2018-02-19T16:26:27.514Z,100277.90
2018-02-19T16:28:55.941Z,100285.95
2018-02-19T16:31:24.442Z,100275.41
2018-02-19T16:33:52.889Z,100280.61
2018-02-19T16:36:21.337Z,100283.84
2018-02-19T16:38:49.846Z,100279.95
2018-02-19T16:41:18.279Z,100278.22
2018-02-19T16:43:46.706Z,100286.83
2018-02-19T16:46:15.198Z,100288.47
2018-02-19T16:48:43.629Z,100285.03
2018-02-19T16:51:12.055Z,100279.80
2018-02-19T16:53:40.548Z,100283.97
2018-02-19T16:56:09.006Z,100275.47
2018-02-19T16:58:37.439Z,100274.05
2018-02-19T17:01:06.030Z,100277.55
2018-02-19T17:03:34.485Z,100277.84
2018-02-19T17:06:02.937Z,100274.02
2018-02-19T17:08:31.414Z,100266.66
2018-02-19T17:10:59.836Z,100265.41
2018-02-19T17:13:28.280Z,100268.73
2018-02-19T17:15:56.762Z,100268.06
2018-02-19T17:18:25.254Z,100272.56
2018-02-19T17:20:53.705Z,100274.84
2018-02-19T17:23:22.209Z,100274.44
2018-02-19T17:25:50.642Z,100269.80
2018-02-19T17:28:19.077Z,100267.69
2018-02-19T17:30:47.560Z,100267.64
2018-02-19T17:33:16.012Z,100274.56
2018-02-19T17:36:00.202Z,100276.23
2018-02-19T17:38:28.690Z,100274.16
2018-02-19T17:40:57.131Z,100270.34
2018-02-19T17:43:25.640Z,100270.71
2018-02-19T17:45:54.103Z,100268.52
2018-02-19T17:48:23.477Z,100271.88
2018-02-19T17:50:51.960Z,100276.48
2018-02-19T17:53:20.403Z,100275.16
2018-02-19T17:55:48.849Z,100273.75
2018-02-19T17:58:17.414Z,100267.08
2018-02-19T18:00:45.874Z,100266.65
2018-02-19T18:03:14.337Z,100271.98
2018-02-19T18:05:42.892Z,100273.90
2018-02-19T18:08:11.350Z,100276.52
2018-02-19T18:10:39.779Z,100276.59
2018-02-19T18:13:08.326Z,100275.19
2018-02-19T18:15:36.786Z,100276.23
2018-02-19T18:18:05.290Z,100276.09
2018-02-19T18:20:33.764Z,100277.36
2018-02-19T18:23:02.193Z,100280.42
2018-02-19T18:25:30.615Z,100282.31
2018-02-19T18:27:59.109Z,100284.96
2018-02-19T18:30:27.548Z,100277.72
2018-02-19T18:32:56.011Z,100283.19
2018-02-19T18:35:24.509Z,100280.29
2018-02-19T18:37:52.950Z,100281.94
2018-02-19T18:40:21.366Z,100285.38
2018-02-19T18:42:49.850Z,100287.27
2018-02-19T18:45:18.300Z,100285.92
2018-02-19T18:47:46.732Z,100283.98
2018-02-19T18:50:15.207Z,100282.34
2018-02-19T18:52:43.652Z,100286.31
2018-02-19T18:55:12.103Z,100280.34
2018-02-19T18:57:40.614Z,100286.10
2018-02-19T19:00:09.078Z,100284.78
2018-02-19T19:02:37.533Z,100290.72
2018-02-19T19:05:06.011Z,100283.78
2018-02-19T19:07:46.357Z,100288.16
2018-02-19T19:10:26.559Z,100288.58
2018-02-19T19:12:55.020Z,100282.77
2018-02-19T19:15:23.519Z,100286.63
2018-02-19T19:17:52.028Z,100293.41
2018-02-19T19:20:20.489Z,100294.00
2018-02-19T19:22:48.956Z,100294.00
2018-02-19T19:25:17.497Z,100290.04
2018-02-19T19:27:45.994Z,100293.06
2018-02-19T19:30:15.210Z,100290.00
2018-02-19T19:32:43.703Z,100283.12
2018-02-19T19:35:12.161Z,100283.61
2018-02-19T19:37:40.656Z,100287.23
2018-02-19T19:40:09.159Z,100279.48
2018-02-19T19:42:37.614Z,100268.75
2018-02-19T19:45:06.103Z,100274.09
2018-02-19T19:47:34.603Z,100281.59
2018-02-19T19:50:03.070Z,100277.81
2018-02-19T19:52:31.522Z,100279.94
2018-02-19T19:55:00.226Z,100272.39
2018-02-19T19:57:28.657Z,100269.34
2018-02-19T19:59:57.344Z,100272.13
2018-02-19T20:02:25.850Z,100265.80
2018-02-19T20:04:54.310Z,100265.91
2018-02-19T20:07:22.766Z,100258.44
2018-02-19T20:09:51.249Z,100264.94
2018-02-19T20:12:19.697Z,100263.75
2018-02-19T20:14:48.151Z,100259.06
2018-02-19T20:20:10.707Z,100264.80
2018-02-19T20:22:39.160Z,100264.47
2018-02-19T20:25:07.620Z,100260.41
2018-02-19T20:27:36.112Z,100257.81
2018-02-19T20:30:04.581Z,100256.81
2018-02-19T20:32:33.010Z,100257.39
2018-02-19T20:35:01.529Z,100259.93
2018-02-19T20:37:30.000Z,100258.05
2018-02-19T20:39:58.475Z,100257.84
2018-02-19T20:42:27.004Z,100248.44
2018-02-19T20:44:55.474Z,100246.39
2018-02-19T20:47:23.919Z,100251.88
2018-02-19T20:49:52.422Z,100247.67
2018-02-19T20:52:20.860Z,100240.87
2018-02-19T20:54:49.284Z,100244.23
2018-02-19T20:57:17.765Z,100251.14
2018-02-19T20:59:46.198Z,100247.40
2018-02-19T21:02:14.634Z,100250.34
2018-02-19T21:04:43.147Z,100238.58
2018-02-19T21:07:11.591Z,100241.48
2018-02-19T21:09:40.041Z,100237.30
2018-02-19T21:12:08.528Z,100233.09
2018-02-19T21:14:37.254Z,100233.20
2018-02-19T21:17:05.682Z,100228.37
2018-02-19T21:19:34.156Z,100233.27
2018-02-19T21:22:02.595Z,100230.66
2018-02-19T21:24:31.038Z,100234.95
2018-02-19T21:26:59.604Z,100233.36
2018-02-19T21:29:28.047Z,100225.48
2018-02-19T21:31:56.487Z,100226.63
2018-02-19T21:34:25.003Z,100220.94
2018-02-19T21:36:53.434Z,100222.56
2018-02-19T21:39:21.880Z,100219.61
2018-02-19T21:41:50.388Z,100232.34
2018-02-19T21:44:18.832Z,100222.21
2018-02-19T21:46:47.319Z,100219.13
2018-02-19T21:49:15.802Z,100220.75
2018-02-19T21:51:44.233Z,100213.47
2018-02-19T21:54:12.680Z,100221.13
2018-02-19T21:56:41.208Z,100225.94
2018-02-19T21:59:09.643Z,100222.55
2018-02-19T22:01:38.082Z,100217.56
2018-02-19T22:04:06.583Z,100219.09
2018-02-19T22:06:35.024Z,100217.42
2018-02-19T22:09:03.578Z,100214.78
2018-02-19T22:11:32.099Z,100211.38
2018-02-19T22:14:00.575Z,100220.02
2018-02-19T22:16:29.026Z,100224.23
2018-02-19T22:18:57.537Z,100215.53
2018-02-19T22:21:26.001Z,100222.13
2018-02-19T22:23:54.443Z,100224.48
2018-02-19T22:26:22.911Z,100225.91
2018-02-19T22:28:51.352Z,100224.34
2018-02-19T22:31:19.817Z,100226.38
2018-02-19T22:33:48.297Z,100225.56
2018-02-19T22:36:16.711Z,100225.39
2018-02-19T22:38:45.143Z,100227.64
2018-02-19T22:41:13.617Z,100233.95
2018-02-19T22:43:42.067Z,100233.20
2018-02-19T22:46:10.536Z,100232.84
2018-02-19T22:48:39.194Z,100233.28
2018-02-19T22:51:07.610Z,100234.95
2018-02-19T22:53:36.058Z,100243.75
2018-02-19T22:56:04.542Z,100241.34
2018-02-19T22:58:32.982Z,100234.34
2018-02-19T23:01:01.408Z,100229.58
2018-02-19T23:03:29.900Z,100236.34
2018-02-19T23:05:58.330Z,100234.98
2018-02-19T23:08:26.775Z,100231.27
2018-02-19T23:10:55.272Z,100230.48
2018-02-19T23:13:23.704Z,100234.48
2018-02-19T23:15:52.142Z,100237.64
2018-02-19T23:18:20.637Z,100235.42
2018-02-19T23:20:49.071Z,100233.52
2018-02-19T23:23:17.506Z,100230.84
2018-02-19T23:25:45.971Z,100236.86
2018-02-19T23:28:14.421Z,100236.99
2018-02-19T23:30:42.860Z,100239.08
2018-02-19T23:33:11.324Z,100241.66
2018-02-19T23:35:39.801Z,100245.03
2018-02-19T23:38:08.239Z,100235.71
2018-02-19T23:40:36.710Z,100237.41
2018-02-19T23:43:05.146Z,100239.66
2018-02-19T23:45:33.574Z,100237.19
2018-02-19T23:48:02.135Z,100233.37
2018-02-19T23:50:30.579Z,100234.49
2018-02-19T23:52:59.022Z,100236.73
2018-02-19T23:55:27.501Z,100236.73
2018-02-19T23:57:55.943Z,100236.64
